createdAt,value
2018-07-21T00:01:16.398Z,20.11
2018-07-21T00:03:45.495Z,20.12
2018-07-21T00:06:14.243Z,20.11
2018-07-21T00:08:43.362Z,20.11
2018-07-21T00:11:12.803Z,20.12
2018-07-21T00:13:41.847Z,20.10
2018-07-21T00:16:10.607Z,20.09
2018-07-21T00:18:39.342Z,20.09
2018-07-21T00:21:08.147Z,20.13
2018-07-21T00:23:36.883Z,20.12
2018-07-21T00:26:05.578Z,20.09
2018-07-21T00:28:34.355Z,20.07
2018-07-21T00:31:03.150Z,20.06
2018-07-21T00:33:32.111Z,20.05
2018-07-21T00:36:01.131Z,20.00
2018-07-21T00:38:30.378Z,19.96
2018-07-21T00:40:59.061Z,19.93
2018-07-21T00:43:28.228Z,19.91
2018-07-21T00:45:57.320Z,19.89
2018-07-21T00:48:26.574Z,19.80
2018-07-21T00:50:55.481Z,19.76
2018-07-21T00:53:24.614Z,19.76
2018-07-21T00:55:53.945Z,19.76
2018-07-21T00:58:23.127Z,19.78
2018-07-21T01:00:52.758Z,19.73
2018-07-21T01:03:21.902Z,19.71
2018-07-21T01:05:51.375Z,19.69
2018-07-21T01:08:20.914Z,19.63
2018-07-21T01:10:50.406Z,19.65
2018-07-21T01:13:19.275Z,19.64
2018-07-21T01:15:48.695Z,19.64
2018-07-21T01:18:17.728Z,19.65
2018-07-21T01:20:46.643Z,19.65
2018-07-21T01:23:15.973Z,19.63
2018-07-21T01:25:45.667Z,19.59
2018-07-21T01:28:14.819Z,19.59
2018-07-21T01:30:44.402Z,19.57
2018-07-21T01:33:13.724Z,19.56
2018-07-21T01:35:42.692Z,19.59
2018-07-21T01:38:12.874Z,19.59
2018-07-21T01:40:42.320Z,19.62
2018-07-21T01:43:11.455Z,19.64
2018-07-21T01:45:40.562Z,19.67
2018-07-21T01:48:09.348Z,19.68
2018-07-21T01:50:38.343Z,19.65
2018-07-21T01:53:07.232Z,19.62
2018-07-21T01:55:36.651Z,19.64
2018-07-21T01:58:05.661Z,19.66
2018-07-21T02:00:34.485Z,19.65
2018-07-21T02:03:03.437Z,19.67
2018-07-21T02:05:32.805Z,19.64
2018-07-21T02:08:03.683Z,19.65
2018-07-21T02:10:34.380Z,19.68
2018-07-21T02:13:04.442Z,19.73
2018-07-21T02:15:33.824Z,19.75
2018-07-21T02:18:02.804Z,19.76
2018-07-21T02:20:31.602Z,19.77
2018-07-21T02:23:00.451Z,19.80
2018-07-21T02:25:29.698Z,19.78
2018-07-21T02:27:59.058Z,19.73
2018-07-21T02:30:27.943Z,19.73
2018-07-21T02:32:56.799Z,19.71
2018-07-21T02:35:25.579Z,19.66
2018-07-21T02:37:54.648Z,19.63
2018-07-21T02:40:23.941Z,19.63
2018-07-21T02:42:53.145Z,19.59
2018-07-21T02:45:22.363Z,19.56
2018-07-21T02:47:51.480Z,19.56
2018-07-21T02:50:20.226Z,19.56
2018-07-21T02:52:49.275Z,19.56
2018-07-21T02:55:18.343Z,19.58
2018-07-21T02:57:47.145Z,19.56
2018-07-21T03:00:16.378Z,19.58
2018-07-21T03:02:45.533Z,19.58
2018-07-21T03:05:14.473Z,19.57
2018-07-21T03:07:43.667Z,19.57
2018-07-21T03:10:12.418Z,19.55
2018-07-21T03:12:42.212Z,19.54
2018-07-21T03:15:11.373Z,19.51
2018-07-21T03:17:40.490Z,19.49
2018-07-21T03:20:09.395Z,19.47
2018-07-21T03:22:38.077Z,19.46
2018-07-21T03:25:07.475Z,19.46
2018-07-21T03:27:36.588Z,19.47
2018-07-21T03:30:06.171Z,19.44
2018-07-21T03:32:35.694Z,19.45
2018-07-21T03:35:04.714Z,19.40
2018-07-21T03:37:33.422Z,19.35
2018-07-21T03:40:02.582Z,19.31
2018-07-21T03:42:31.566Z,19.30
2018-07-21T03:45:00.901Z,19.28
2018-07-21T03:47:29.907Z,19.26
2018-07-21T03:49:58.685Z,19.25
2018-07-21T03:52:27.451Z,19.18
2018-07-21T03:54:56.750Z,19.14
2018-07-21T03:57:26.359Z,19.14
2018-07-21T03:59:55.930Z,19.14
2018-07-21T04:02:25.262Z,19.16
2018-07-21T04:04:55.116Z,19.13
2018-07-21T04:07:24.858Z,19.13
2018-07-21T04:09:54.596Z,19.09
2018-07-21T04:12:24.282Z,19.02
2018-07-21T04:14:54.028Z,19.02
2018-07-21T04:17:27.479Z,19.01
2018-07-21T04:19:57.726Z,19.05
2018-07-21T04:22:27.197Z,19.06
2018-07-21T04:24:56.442Z,19.03
2018-07-21T04:27:25.600Z,18.97
2018-07-21T04:29:54.418Z,18.92
2018-07-21T04:32:23.208Z,18.85
2018-07-21T04:34:52.214Z,18.85
2018-07-21T04:37:21.517Z,18.81
2018-07-21T04:39:50.930Z,18.74
2018-07-21T04:42:19.983Z,18.70
2018-07-21T04:44:49.167Z,18.66
2018-07-21T04:47:18.273Z,18.58
2018-07-21T04:49:47.005Z,18.58
2018-07-21T04:52:15.804Z,18.56
2018-07-21T04:54:44.799Z,18.56
2018-07-21T04:57:13.634Z,18.61
2018-07-21T04:59:42.844Z,18.64
2018-07-21T05:02:11.917Z,18.70
2018-07-21T05:04:40.922Z,18.70
2018-07-21T05:07:10.305Z,18.74
2018-07-21T05:09:39.425Z,18.77
2018-07-21T05:12:07.749Z,18.83
2018-07-21T05:14:37.174Z,18.88
2018-07-21T05:17:06.171Z,18.92
2018-07-21T05:19:35.066Z,18.95
2018-07-21T05:22:04.186Z,19.00
2018-07-21T05:24:33.090Z,19.06
2018-07-21T05:27:02.601Z,19.13
2018-07-21T05:29:31.918Z,19.17
2018-07-21T05:32:00.978Z,19.24
2018-07-21T05:34:29.990Z,19.27
2018-07-21T05:36:59.184Z,19.28
2018-07-21T05:39:28.288Z,19.32
2018-07-21T05:41:57.785Z,19.36
2018-07-21T05:44:27.579Z,19.37
2018-07-21T05:46:56.602Z,19.41
2018-07-21T05:49:25.932Z,19.45
2018-07-21T05:51:55.445Z,19.55
2018-07-21T05:54:24.226Z,19.61
2018-07-21T05:56:53.112Z,19.66
2018-07-21T05:59:22.035Z,19.67
2018-07-21T06:01:51.300Z,19.67
2018-07-21T06:04:20.258Z,19.64
2018-07-21T06:06:49.742Z,19.65
2018-07-21T06:09:19.075Z,19.72
2018-07-21T06:11:47.790Z,19.79
2018-07-21T06:14:16.834Z,19.84
2018-07-21T06:16:45.906Z,19.87
2018-07-21T06:19:15.449Z,19.94
2018-07-21T06:21:44.331Z,20.00
2018-07-21T06:24:13.748Z,20.05
2018-07-21T06:26:43.556Z,20.09
2018-07-21T06:29:12.631Z,20.13
2018-07-21T06:31:41.933Z,20.17
2018-07-21T06:34:11.531Z,20.24
2018-07-21T06:36:41.304Z,20.32
2018-07-21T06:39:12.568Z,20.33
2018-07-21T06:41:41.807Z,20.34
2018-07-21T06:44:10.742Z,20.38
2018-07-21T06:46:39.554Z,20.42
2018-07-21T06:49:08.336Z,20.45
2018-07-21T06:51:37.514Z,20.51
2018-07-21T06:54:06.551Z,20.56
2018-07-21T06:56:35.641Z,20.60
2018-07-21T06:59:04.839Z,20.64
2018-07-21T07:01:34.041Z,20.71
2018-07-21T07:04:02.990Z,20.81
2018-07-21T07:06:32.052Z,20.90
2018-07-21T07:09:00.821Z,20.99
2018-07-21T07:11:29.668Z,21.06
2018-07-21T07:13:58.997Z,21.11
2018-07-21T07:16:29.084Z,21.16
2018-07-21T07:18:57.944Z,21.19
2018-07-21T07:21:26.915Z,21.19
2018-07-21T07:23:55.733Z,21.25
2018-07-21T07:26:24.626Z,21.33
2018-07-21T07:28:54.120Z,21.39
2018-07-21T07:31:23.184Z,21.46
2018-07-21T07:33:52.290Z,21.55
2018-07-21T07:36:21.140Z,21.61
2018-07-21T07:38:50.219Z,21.64
2018-07-21T07:41:19.042Z,21.73
2018-07-21T07:43:48.064Z,21.81
2018-07-21T07:46:17.610Z,21.90
2018-07-21T07:48:46.788Z,22.03
2018-07-21T07:51:15.869Z,22.25
2018-07-21T07:53:44.993Z,22.49
2018-07-21T07:56:13.770Z,22.76
2018-07-21T07:58:42.578Z,23.03
2018-07-21T08:01:11.390Z,23.23
2018-07-21T08:03:40.386Z,23.44
2018-07-21T08:06:09.454Z,23.63
2018-07-21T08:08:38.214Z,23.71
2018-07-21T08:11:07.339Z,23.80
2018-07-21T08:13:36.716Z,23.99
2018-07-21T08:16:06.270Z,24.16
2018-07-21T08:18:35.017Z,24.25
2018-07-21T08:21:04.076Z,24.44
2018-07-21T08:23:33.320Z,24.68
2018-07-21T08:26:02.237Z,24.65
2018-07-21T08:28:31.044Z,24.66
2018-07-21T08:30:59.882Z,24.70
2018-07-21T08:33:28.714Z,24.75
2018-07-21T08:35:57.875Z,24.72
2018-07-21T08:38:27.192Z,24.77
2018-07-21T08:40:56.321Z,24.82
2018-07-21T08:43:25.099Z,24.89
2018-07-21T08:45:54.089Z,25.03
2018-07-21T08:48:25.110Z,25.07
2018-07-21T08:50:53.895Z,25.13
2018-07-21T08:53:22.953Z,25.23
2018-07-21T08:55:51.941Z,25.33
2018-07-21T08:58:20.951Z,25.37
2018-07-21T09:00:49.975Z,25.49
2018-07-21T09:03:19.062Z,25.64
2018-07-21T09:05:48.138Z,25.78
2018-07-21T09:08:17.243Z,25.86
2018-07-21T09:10:46.318Z,26.01
2018-07-21T09:13:15.170Z,26.24
2018-07-21T09:15:43.914Z,26.37
2018-07-21T09:18:12.656Z,26.49
2018-07-21T09:20:41.447Z,26.64
2018-07-21T09:23:10.235Z,26.85
2018-07-21T09:25:39.271Z,27.08
2018-07-21T09:28:08.193Z,27.35
2018-07-21T09:30:37.274Z,27.47
2018-07-21T09:33:06.387Z,27.48
2018-07-21T09:35:35.247Z,27.60
2018-07-21T09:38:04.135Z,27.75
2018-07-21T09:40:33.233Z,27.99
2018-07-21T09:43:02.302Z,28.14
2018-07-21T09:45:31.977Z,28.40
2018-07-21T09:48:07.699Z,28.44
2018-07-21T09:50:37.051Z,28.51
2018-07-21T09:53:06.495Z,28.66
2018-07-21T09:55:35.948Z,28.85
2018-07-21T09:58:04.946Z,29.08
2018-07-21T10:00:38.831Z,29.22
2018-07-21T10:03:07.959Z,29.46
2018-07-21T10:05:36.716Z,29.59
2018-07-21T10:08:15.158Z,29.87
2018-07-21T10:10:44.187Z,30.08
2018-07-21T10:13:13.497Z,30.18
2018-07-21T10:15:42.293Z,30.37
2018-07-21T10:18:11.425Z,30.52
2018-07-21T10:20:40.205Z,30.72
2018-07-21T10:23:09.319Z,30.78
2018-07-21T10:25:43.330Z,30.86
2018-07-21T10:28:17.358Z,31.07
2018-07-21T10:30:46.141Z,31.22
2018-07-21T10:33:15.472Z,31.39
2018-07-21T10:35:44.238Z,31.52
2018-07-21T10:38:13.281Z,31.65
2018-07-21T10:40:42.487Z,31.84
2018-07-21T10:43:11.360Z,31.97
2018-07-21T10:45:40.441Z,32.02
2018-07-21T10:48:09.347Z,31.99
2018-07-21T10:50:38.160Z,32.09
2018-07-21T10:53:07.291Z,31.94
2018-07-21T10:55:36.509Z,32.11
2018-07-21T10:58:05.560Z,32.19
2018-07-21T11:00:34.651Z,32.52
2018-07-21T11:03:03.427Z,32.49
2018-07-21T11:05:32.484Z,32.66
2018-07-21T11:08:01.220Z,33.00
2018-07-21T11:10:29.997Z,33.29
2018-07-21T11:12:58.834Z,33.57
2018-07-21T11:15:27.902Z,33.82
2018-07-21T11:17:56.945Z,33.88
2018-07-21T11:20:26.071Z,33.62
2018-07-21T11:22:54.830Z,33.61
2018-07-21T11:25:24.287Z,33.53
2018-07-21T11:27:53.034Z,33.73
2018-07-21T11:30:21.789Z,33.81
2018-07-21T11:32:50.559Z,33.87
2018-07-21T11:35:19.718Z,34.05
2018-07-21T11:37:48.694Z,34.16
2018-07-21T11:40:18.025Z,34.16
2018-07-21T11:42:47.051Z,34.39
2018-07-21T11:45:15.789Z,34.61
2018-07-21T11:47:44.866Z,34.77
2018-07-21T11:50:14.058Z,34.84
2018-07-21T11:52:43.183Z,35.01
2018-07-21T11:55:12.453Z,35.24
2018-07-21T11:57:41.281Z,35.29
2018-07-21T12:00:10.672Z,35.51
2018-07-21T12:02:39.684Z,35.74
2018-07-21T12:05:08.713Z,35.90
2018-07-21T12:07:38.062Z,35.99
2018-07-21T12:10:08.128Z,36.01
2018-07-21T12:12:37.400Z,36.07
2018-07-21T12:15:06.708Z,36.23
2018-07-21T12:17:35.749Z,36.24
2018-07-21T12:20:04.823Z,36.29
2018-07-21T12:22:35.636Z,36.51
2018-07-21T12:25:05.079Z,36.73
2018-07-21T12:27:33.880Z,36.97
2018-07-21T12:30:04.037Z,37.15
2018-07-21T12:32:32.848Z,36.91
2018-07-21T12:35:03.725Z,36.58
2018-07-21T12:37:35.210Z,36.37
2018-07-21T12:40:04.616Z,36.37
2018-07-21T12:42:33.383Z,36.46
2018-07-21T12:45:03.025Z,36.73
2018-07-21T12:47:32.845Z,36.60
2018-07-21T12:50:05.666Z,36.67
2018-07-21T12:52:34.422Z,36.78
2018-07-21T12:55:03.700Z,36.63
2018-07-21T12:57:32.735Z,36.41
2018-07-21T13:00:02.314Z,36.42
2018-07-21T13:02:32.755Z,36.49
2018-07-21T13:05:02.384Z,36.83
2018-07-21T13:07:31.754Z,37.03
2018-07-21T13:10:00.799Z,37.05
2018-07-21T13:12:29.737Z,37.07
2018-07-21T13:15:02.916Z,37.03
2018-07-21T13:17:33.000Z,36.98
2018-07-21T13:20:02.596Z,37.03
2018-07-21T13:22:31.611Z,37.15
2018-07-21T13:25:02.078Z,37.24
2018-07-21T13:27:31.032Z,37.31
2018-07-21T13:29:59.988Z,37.31
2018-07-21T13:32:30.851Z,37.31
2018-07-21T13:34:59.578Z,37.31
2018-07-21T13:37:28.722Z,37.09
2018-07-21T13:40:03.499Z,36.70
2018-07-21T13:42:32.879Z,36.55
2018-07-21T13:45:02.209Z,36.59
2018-07-21T13:47:31.329Z,36.57
2018-07-21T13:50:00.893Z,36.51
2018-07-21T13:52:29.731Z,36.83
2018-07-21T13:54:58.792Z,37.17
2018-07-21T13:57:31.670Z,37.06
2018-07-21T14:00:00.758Z,37.17
2018-07-21T14:02:29.754Z,37.32
2018-07-21T14:04:58.916Z,37.24
2018-07-21T14:07:28.332Z,37.24
2018-07-21T14:10:00.948Z,37.49
2018-07-21T14:12:30.453Z,37.64
2018-07-21T14:14:59.523Z,37.65
2018-07-21T14:17:28.620Z,37.59
2018-07-21T14:19:57.670Z,37.59
2018-07-21T14:22:26.674Z,37.29
2018-07-21T14:24:55.830Z,37.01
2018-07-21T14:27:25.185Z,36.94
2018-07-21T14:29:54.092Z,37.02
2018-07-21T14:32:22.973Z,37.09
2018-07-21T14:34:51.764Z,37.10
2018-07-21T14:37:20.506Z,37.17
2018-07-21T14:39:49.471Z,36.93
2018-07-21T14:42:18.627Z,36.94
2018-07-21T14:44:47.378Z,36.87
2018-07-21T14:47:16.085Z,36.78
2018-07-21T14:49:45.108Z,36.53
2018-07-21T14:52:14.193Z,36.19
2018-07-21T14:54:43.614Z,36.01
2018-07-21T14:57:12.679Z,35.76
2018-07-21T14:59:41.523Z,35.38
2018-07-21T15:02:10.327Z,34.93
2018-07-21T15:04:39.713Z,34.50
2018-07-21T15:07:08.576Z,33.59
2018-07-21T15:09:37.584Z,32.95
2018-07-21T15:12:06.906Z,32.67
2018-07-21T15:14:35.855Z,32.58
2018-07-21T15:17:04.619Z,32.42
2018-07-21T15:19:34.046Z,32.37
2018-07-21T15:22:03.173Z,32.09
2018-07-21T15:24:33.814Z,31.75
2018-07-21T15:27:03.823Z,31.47
2018-07-21T15:29:34.667Z,31.05
2018-07-21T15:32:05.463Z,30.98
2018-07-21T15:34:34.720Z,31.08
2018-07-21T15:37:03.706Z,30.88
2018-07-21T15:39:32.914Z,30.92
2018-07-21T15:42:02.673Z,31.05
2018-07-21T15:44:33.829Z,31.14
2018-07-21T15:47:02.691Z,30.99
2018-07-21T15:49:31.786Z,31.10
2018-07-21T15:52:00.835Z,31.02
2018-07-21T15:54:30.376Z,31.03
2018-07-21T15:56:59.724Z,31.07
2018-07-21T15:59:29.202Z,31.14
2018-07-21T16:01:58.234Z,31.31
2018-07-21T16:04:27.066Z,31.38
2018-07-21T16:07:02.333Z,31.27
2018-07-21T16:09:31.376Z,31.30
2018-07-21T16:12:00.460Z,31.29
2018-07-21T16:14:29.268Z,31.32
2018-07-21T16:16:58.622Z,31.34
2018-07-21T16:19:27.549Z,31.28
2018-07-21T16:21:56.617Z,31.22
2018-07-21T16:24:25.697Z,30.99
2018-07-21T16:26:54.793Z,30.96
2018-07-21T16:29:23.610Z,31.03
2018-07-21T16:31:52.939Z,31.21
2018-07-21T16:34:22.292Z,31.21
2018-07-21T16:36:51.354Z,31.11
2018-07-21T16:39:20.098Z,30.97
2018-07-21T16:41:48.917Z,30.82
2018-07-21T16:44:17.675Z,30.66
2018-07-21T16:46:46.598Z,30.57
2018-07-21T16:49:15.447Z,30.52
2018-07-21T16:51:44.558Z,30.51
2018-07-21T16:54:13.340Z,30.50
2018-07-21T16:56:42.297Z,30.58
2018-07-21T16:59:11.470Z,30.52
2018-07-21T17:01:40.250Z,30.43
2018-07-21T17:04:09.274Z,30.45
2018-07-21T17:06:38.739Z,30.50
2018-07-21T17:09:10.129Z,30.53
2018-07-21T17:11:38.925Z,30.54
2018-07-21T17:14:08.861Z,30.57
2018-07-21T17:16:39.036Z,30.68
2018-07-21T17:19:12.700Z,30.81
2018-07-21T17:21:41.771Z,30.78
2018-07-21T17:24:11.105Z,30.79
2018-07-21T17:26:40.426Z,30.74
2018-07-21T17:29:09.462Z,30.72
2018-07-21T17:31:38.458Z,30.71
2018-07-21T17:34:07.206Z,30.71
2018-07-21T17:36:36.027Z,30.76
2018-07-21T17:39:07.039Z,30.74
2018-07-21T17:41:36.128Z,30.82
2018-07-21T17:44:05.015Z,30.96
2018-07-21T17:46:34.731Z,31.12
2018-07-21T17:49:04.242Z,31.20
2018-07-21T17:51:32.961Z,31.20
2018-07-21T17:54:02.594Z,31.12
2018-07-21T17:56:31.694Z,31.01
2018-07-21T17:59:02.064Z,30.98
2018-07-21T18:01:30.849Z,31.03
2018-07-21T18:03:59.607Z,31.08
2018-07-21T18:06:29.366Z,31.09
2018-07-21T18:08:58.490Z,31.02
2018-07-21T18:11:27.924Z,31.02
2018-07-21T18:13:56.821Z,31.07
2018-07-21T18:16:25.722Z,31.08
2018-07-21T18:18:54.502Z,31.06
2018-07-21T18:21:23.765Z,31.09
2018-07-21T18:23:52.695Z,31.03
2018-07-21T18:26:23.234Z,30.96
2018-07-21T18:28:52.575Z,30.84
2018-07-21T18:31:22.106Z,30.55
2018-07-21T18:33:51.992Z,30.35
2018-07-21T18:36:21.940Z,30.22
2018-07-21T18:38:50.911Z,30.10
2018-07-21T18:41:21.894Z,29.99
2018-07-21T18:43:50.909Z,29.91
2018-07-21T18:46:20.076Z,29.73
2018-07-21T18:48:49.278Z,29.59
2018-07-21T18:51:18.184Z,29.43
2018-07-21T18:53:47.563Z,29.24
2018-07-21T18:56:16.456Z,29.07
2018-07-21T18:58:45.635Z,28.88
2018-07-21T19:01:14.813Z,28.77
2018-07-21T19:03:43.926Z,28.70
2018-07-21T19:06:13.120Z,28.66
2018-07-21T19:08:47.242Z,28.61
2018-07-21T19:11:16.048Z,28.53
2018-07-21T19:13:45.664Z,28.43
2018-07-21T19:16:19.871Z,28.27
2018-07-21T19:18:49.055Z,28.10
2018-07-21T19:21:22.958Z,28.06
2018-07-21T19:23:52.566Z,28.03
2018-07-21T19:26:27.359Z,28.01
2018-07-21T19:28:57.019Z,28.04
2018-07-21T19:31:25.838Z,28.03
2018-07-21T19:33:55.092Z,28.03
2018-07-21T19:36:24.144Z,28.04
2018-07-21T19:38:53.370Z,28.01
2018-07-21T19:41:27.902Z,27.98
2018-07-21T19:43:57.469Z,27.91
2018-07-21T19:46:26.649Z,27.76
2018-07-21T19:48:56.217Z,27.63
2018-07-21T19:51:25.324Z,27.49
2018-07-21T19:54:01.162Z,27.38
2018-07-21T19:56:30.994Z,27.27
2018-07-21T19:58:59.807Z,27.14
2018-07-21T20:01:28.826Z,26.98
2018-07-21T20:03:58.504Z,26.85
2018-07-21T20:06:27.605Z,26.74
2018-07-21T20:08:56.757Z,26.69
2018-07-21T20:11:26.354Z,26.58
2018-07-21T20:13:55.265Z,26.55
2018-07-21T20:16:27.473Z,26.49
2018-07-21T20:18:56.448Z,26.44
2018-07-21T20:21:25.692Z,26.42
2018-07-21T20:23:56.411Z,26.42
2018-07-21T20:26:31.769Z,26.39
2018-07-21T20:29:11.872Z,26.34
2018-07-21T20:31:41.043Z,26.27
2018-07-21T20:34:09.884Z,26.16
2018-07-21T20:36:39.085Z,26.09
2018-07-21T20:39:12.419Z,26.03
2018-07-21T20:41:41.792Z,25.91
2018-07-21T20:44:11.557Z,25.82
2018-07-21T20:46:40.345Z,25.75
2018-07-21T20:49:11.320Z,25.67
2018-07-21T20:51:40.182Z,25.61
2018-07-21T20:54:09.296Z,25.60
2018-07-21T20:56:38.045Z,25.57
2018-07-21T20:59:06.772Z,25.50
2018-07-21T21:01:39.394Z,25.43
2018-07-21T21:04:08.861Z,25.31
2018-07-21T21:06:50.602Z,25.22
2018-07-21T21:09:19.698Z,25.17
2018-07-21T21:11:48.512Z,25.10
2018-07-21T21:14:18.730Z,25.03
2018-07-21T21:16:48.171Z,24.95
2018-07-21T21:19:21.384Z,24.90
2018-07-21T21:21:51.639Z,24.86
2018-07-21T21:24:20.447Z,24.82
2018-07-21T21:26:49.323Z,24.81
2018-07-21T21:29:18.208Z,24.80
2018-07-21T21:31:47.006Z,24.77
2018-07-21T21:34:16.331Z,24.66
2018-07-21T21:36:45.305Z,24.59
2018-07-21T21:39:14.546Z,24.51
2018-07-21T21:41:43.988Z,24.43
2018-07-21T21:44:12.735Z,24.36
2018-07-21T21:46:41.505Z,24.28
2018-07-21T21:49:10.634Z,24.20
2018-07-21T21:51:39.481Z,24.14
2018-07-21T21:54:08.753Z,24.08
2018-07-21T21:56:37.553Z,24.01
2018-07-21T21:59:06.538Z,23.94
2018-07-21T22:01:40.949Z,23.84
2018-07-21T22:04:11.385Z,23.77
2018-07-21T22:06:42.245Z,23.72
2018-07-21T22:09:13.848Z,23.63
2018-07-21T22:11:43.181Z,23.50
2018-07-21T22:14:12.077Z,23.39
2018-07-21T22:16:41.362Z,23.31
2018-07-21T22:19:10.227Z,23.26
2018-07-21T22:21:39.397Z,23.21
2018-07-21T22:24:08.775Z,23.13
2018-07-21T22:26:38.777Z,23.03
2018-07-21T22:29:07.902Z,23.02
2018-07-21T22:31:36.938Z,22.96
2018-07-21T22:34:06.063Z,22.92
2018-07-21T22:36:35.592Z,22.88
2018-07-21T22:39:06.697Z,22.76
2018-07-21T22:41:35.777Z,22.65
2018-07-21T22:44:05.187Z,22.59
2018-07-21T22:46:34.030Z,22.51
2018-07-21T22:49:02.847Z,22.41
2018-07-21T22:51:31.778Z,22.33
2018-07-21T22:54:00.692Z,22.23
2018-07-21T22:56:29.486Z,22.12
2018-07-21T22:58:58.577Z,22.07
2018-07-21T23:01:27.942Z,22.01
2018-07-21T23:03:57.159Z,21.98
2018-07-21T23:06:26.075Z,21.95
2018-07-21T23:08:55.066Z,21.92
2018-07-21T23:11:24.462Z,21.89
2018-07-21T23:13:53.875Z,21.84
2018-07-21T23:16:22.872Z,21.81
2018-07-21T23:18:51.972Z,21.75
2018-07-21T23:21:21.004Z,21.68
2018-07-21T23:23:50.016Z,21.59
2018-07-21T23:26:19.118Z,21.45
2018-07-21T23:28:48.347Z,21.36
2018-07-21T23:31:17.527Z,21.31
2018-07-21T23:33:46.618Z,21.23
2018-07-21T23:36:15.750Z,21.13
2018-07-21T23:38:44.876Z,21.04
2018-07-21T23:41:13.873Z,20.94
2018-07-21T23:43:43.020Z,20.79
2018-07-21T23:46:12.067Z,20.70
2018-07-21T23:48:40.811Z,20.62
2018-07-21T23:51:10.072Z,20.55
2018-07-21T23:53:38.840Z,20.53
2018-07-21T23:56:08.072Z,20.51
2018-07-21T23:58:36.877Z,20.44
